Time;durP1;ratioP1;P1;durP2;ratioP2;P2;SDS_P1;SDS_P2;PMS_P1;PMS_P2;Temp;Humidity;BMP_temperature;BMP_pressure;BME280_temperature;BME280_humidity;BME280_pressure;Samples;Min_cycle;Max_cycle;Signal;HPM_P1;HPM_P2
2022/10/15 00:00:34;;;;;;;46.00;27.47;;;;;;;12.46;100.00;100851.00;5051846;28;20377;-74
2022/10/15 00:02:59;;;;;;;45.23;26.50;;;;;;;12.35;100.00;100863.47;5052630;28;20040;-74
2022/10/15 00:05:25;;;;;;;44.30;27.60;;;;;;;12.24;100.00;100866.84;5051280;28;20051;-74
2022/10/15 00:07:51;;;;;;;45.10;26.17;;;;;;;12.25;100.00;100868.53;5049421;28;20106;-74
2022/10/15 00:10:16;;;;;;;47.83;29.10;;;;;;;12.12;100.00;100862.16;5051257;28;20116;-74
2022/10/15 00:12:42;;;;;;;42.33;26.60;;;;;;;12.09;100.00;100865.28;5050483;28;20104;-73
2022/10/15 00:15:09;;;;;;;45.00;27.70;;;;;;;12.04;100.00;100865.06;5051962;28;20047;-74
2022/10/15 00:17:35;;;;;;;41.20;25.25;;;;;;;11.97;100.00;100858.72;5049545;28;20043;-74
2022/10/15 00:20:01;;;;;;;40.20;26.30;;;;;;;11.98;100.00;100852.16;5032881;28;20385;-74
2022/10/15 00:22:26;;;;;;;43.97;25.70;;;;;;;11.93;100.00;100851.94;5034152;28;20075;-73
2022/10/15 00:24:51;;;;;;;42.17;25.57;;;;;;;11.85;100.00;100849.38;5050156;28;20116;-74
2022/10/15 00:27:17;;;;;;;38.10;25.23;;;;;;;11.83;100.00;100857.81;5031967;28;20040;-74
2022/10/15 00:29:42;;;;;;;44.80;27.10;;;;;;;11.85;100.00;100857.63;5051597;28;20111;-74
2022/10/15 00:32:08;;;;;;;43.73;27.03;;;;;;;11.92;100.00;100851.09;5033459;28;22367;-74
2022/10/15 00:34:34;;;;;;;41.53;27.10;;;;;;;11.93;100.00;100862.91;5050199;28;20044;-74
2022/10/15 00:36:59;;;;;;;39.50;26.07;;;;;;;11.97;100.00;100855.97;5051032;28;20147;-73
2022/10/15 00:39:24;;;;;;;45.40;26.93;;;;;;;11.98;100.00;100863.16;5048049;28;20029;-74
2022/10/15 00:41:50;;;;;;;53.20;30.60;;;;;;;12.16;100.00;100853.28;5052070;28;20460;-73
2022/10/15 00:44:24;;;;;;;48.40;29.40;;;;;;;12.16;100.00;100850.53;5051223;28;20078;-74
2022/10/15 00:46:52;;;;;;;46.92;28.08;;;;;;;12.17;100.00;100852.22;5050915;28;20051;-74
2022/10/15 00:49:23;;;;;;;48.45;30.13;;;;;;;12.20;100.00;100848.22;5047372;28;20029;-74
2022/10/15 00:51:58;;;;;;;44.50;27.77;;;;;;;12.30;100.00;100846.78;5050895;28;20078;-74
2022/10/15 00:54:26;;;;;;;42.88;27.25;;;;;;;12.28;100.00;100854.34;5030497;28;20442;-74
2022/10/15 00:56:54;;;;;;;48.20;28.23;;;;;;;12.26;100.00;100859.22;5033109;28;20106;-74
2022/10/15 00:59:23;;;;;;;45.95;27.65;;;;;;;12.20;100.00;100849.06;5050123;28;20502;-74
2022/10/15 01:01:49;;;;;;;41.55;26.80;;;;;;;12.25;100.00;100846.56;5050479;28;20029;-74
2022/10/15 01:04:16;;;;;;;47.33;27.70;;;;;;;12.29;100.00;100838.75;5049643;28;20120;-74
2022/10/15 01:06:41;;;;;;;48.50;27.42;;;;;;;12.25;100.00;100841.06;5048382;28;20036;-73
2022/10/15 01:09:07;;;;;;;55.83;26.37;;;;;;;12.24;100.00;100844.88;5047635;28;20078;-74
2022/10/15 01:11:45;;;;;;;47.03;27.67;;;;;;;12.26;100.00;100839.13;5051406;28;20101;-74
2022/10/15 01:14:10;;;;;;;41.72;28.00;;;;;;;12.35;100.00;100833.25;5050020;28;20067;-74
2022/10/15 01:16:49;;;;;;;43.70;26.73;;;;;;;12.30;100.00;100834.94;5049457;28;20454;-73
2022/10/15 01:20:14;;;;;;;46.58;27.40;;;;;;;12.32;100.00;100830.09;5049473;28;20044;-73
2022/10/15 01:23:10;;;;;;;39.80;25.92;;;;;;;12.33;100.00;100826.28;5048991;28;20033;-74
2022/10/15 01:25:47;;;;;;;42.85;26.65;;;;;;;12.29;100.00;100822.25;5048786;28;20060;-74
2022/10/15 01:28:12;;;;;;;;;;;;;;;12.30;100.00;100821.19;5049200;28;20025;-73
2022/10/15 01:30:43;;;;;;;44.73;26.70;;;;;;;12.28;100.00;100823.31;5051042;28;20339;-74
2022/10/15 01:33:16;;;;;;;43.78;25.92;;;;;;;12.27;100.00;100819.72;5049476;28;20339;-74
2022/10/15 01:35:53;;;;;;;39.38;26.45;;;;;;;12.25;100.00;100807.25;5049418;28;20538;-74
2022/10/15 01:38:26;;;;;;;39.33;25.58;;;;;;;12.29;100.00;100808.53;5047751;28;20555;-74
2022/10/15 01:40:58;;;;;;;40.10;26.17;;;;;;;12.29;100.00;100789.28;5044146;28;20055;-74
2022/10/15 01:43:30;;;;;;;44.60;26.40;;;;;;;12.25;100.00;100802.59;5048837;28;20064;-74
2022/10/15 01:46:03;;;;;;;38.80;25.73;;;;;;;12.28;100.00;100804.09;5049972;28;20036;-73
2022/10/15 01:48:30;;;;;;;35.38;25.85;;;;;;;12.45;100.00;100800.72;5048893;28;20029;-74
2022/10/15 01:51:01;;;;;;;43.42;26.48;;;;;;;12.46;100.00;100812.56;5050398;28;20166;-74
2022/10/15 01:53:28;;;;;;;38.72;25.58;;;;;;;12.50;100.00;100814.66;5047202;28;20052;-74
2022/10/15 01:56:02;;;;;;;40.58;25.88;;;;;;;12.56;100.00;100807.50;5049207;28;20116;-74
2022/10/15 01:58:29;;;;;;;38.88;26.77;;;;;;;12.52;100.00;100803.47;5047287;28;20025;-74
2022/10/15 02:00:56;;;;;;;38.88;27.52;;;;;;;12.59;100.00;100801.59;5049193;28;20087;-73
2022/10/15 02:03:22;;;;;;;42.42;26.30;;;;;;;12.54;100.00;100796.69;5047554;28;20538;-74
2022/10/15 02:05:55;;;;;;;39.80;27.57;;;;;;;12.69;100.00;100790.97;5048726;28;20060;-74
2022/10/15 02:08:30;;;;;;;38.95;26.75;;;;;;;12.72;100.00;100787.81;5047574;28;20286;-74
2022/10/15 02:11:03;;;;;;;38.42;27.02;;;;;;;12.75;100.00;100795.66;5022688;28;20038;-74
2022/10/15 02:14:01;;;;;;;44.58;29.23;;;;;;;12.68;100.00;100786.56;5040180;28;20028;-73
2022/10/15 02:16:37;;;;;;;40.45;26.42;;;;;;;12.71;100.00;100786.13;5043558;28;20037;-74
2022/10/15 02:19:14;;;;;;;38.50;26.30;;;;;;;12.65;100.00;100792.50;5048591;28;20110;-73
2022/10/15 02:21:49;;;;;;;38.75;26.67;;;;;;;12.64;100.00;100771.56;5030041;28;20033;-74
2022/10/15 02:24:18;;;;;;;38.88;26.55;;;;;;;12.69;100.00;100771.75;5045445;28;20049;-74
2022/10/15 02:26:45;;;;;;;40.65;29.30;;;;;;;12.74;100.00;100769.22;5049307;28;20021;-73
2022/10/15 02:29:16;;;;;;;41.92;28.08;;;;;;;12.83;100.00;100763.28;5049207;28;20498;-74
2022/10/15 02:31:45;;;;;;;41.40;28.90;;;;;;;12.83;100.00;100751.44;5049160;28;20083;-74
2022/10/15 02:34:17;;;;;;;46.28;27.48;;;;;;;12.76;100.00;100750.63;5028721;28;20445;-74
2022/10/15 02:36:43;;;;;;;35.97;26.35;;;;;;;12.68;100.00;100748.06;5031032;28;20535;-74
2022/10/15 02:39:17;;;;;;;45.35;27.63;;;;;;;12.65;100.00;100741.09;5045843;28;20053;-74
2022/10/15 02:41:42;;;;;;;42.85;28.40;;;;;;;12.60;100.00;100731.81;5031477;28;20029;-74
2022/10/15 02:44:08;;;;;;;40.07;27.00;;;;;;;12.50;100.00;100726.75;5049214;28;20032;-74
2022/10/15 02:46:33;;;;;;;36.47;25.57;;;;;;;12.48;100.00;100728.03;5050045;28;20056;-73
2022/10/15 02:48:58;;;;;;;40.17;27.13;;;;;;;12.33;100.00;100717.25;5049081;28;20039;-74
2022/10/15 02:51:24;;;;;;;40.87;27.23;;;;;;;12.31;100.00;100713.03;5047784;28;20031;-74
2022/10/15 02:53:49;;;;;;;36.63;26.17;;;;;;;12.23;100.00;100714.06;5029310;28;20110;-74
2022/10/15 02:56:14;;;;;;;41.17;25.73;;;;;;;12.24;100.00;100731.41;5031189;28;20733;-73
2022/10/15 02:58:40;;;;;;;62.37;26.00;;;;;;;12.15;100.00;100721.69;5031227;28;20124;-74
2022/10/15 03:01:05;;;;;;;38.57;26.53;;;;;;;12.15;100.00;100719.78;5031105;28;20067;-73
2022/10/15 03:03:30;;;;;;;44.40;28.20;;;;;;;12.06;100.00;100731.19;5045547;28;20021;-74
2022/10/15 03:05:56;;;;;;;43.40;27.23;;;;;;;12.02;100.00;100721.69;5049496;28;20033;-73
2022/10/15 03:08:21;;;;;;;40.53;28.00;;;;;;;11.99;100.00;100719.34;5047956;28;20033;-73
2022/10/15 03:10:47;;;;;;;42.43;26.73;;;;;;;12.06;100.00;100710.06;5047971;28;20056;-73
2022/10/15 03:13:12;;;;;;;38.10;27.83;;;;;;;12.01;100.00;100712.59;5051279;28;20379;-74
2022/10/15 03:15:38;;;;;;;44.13;28.03;;;;;;;12.00;100.00;100705.41;5053087;28;20049;-73
2022/10/15 03:18:04;;;;;;;42.33;27.70;;;;;;;12.04;100.00;100705.81;5050660;28;20037;-74
2022/10/15 03:20:29;;;;;;;40.77;28.60;;;;;;;11.91;100.00;100712.16;5051410;28;20468;-74
2022/10/15 03:22:55;;;;;;;46.50;28.73;;;;;;;11.91;100.00;100719.56;5033324;28;20274;-74
2022/10/15 03:25:20;;;;;;;45.27;26.70;;;;;;;11.88;100.00;100714.47;5050588;28;20094;-74
2022/10/15 03:27:46;;;;;;;39.00;28.10;;;;;;;11.86;100.00;100709.19;5051383;28;20040;-74
2022/10/15 03:30:12;;;;;;;44.30;28.10;;;;;;;11.88;100.00;100706.25;5052272;28;20464;-74
2022/10/15 03:32:37;;;;;;;43.27;28.73;;;;;;;11.98;100.00;100707.53;5051903;28;20029;-74
2022/10/15 03:35:03;;;;;;;51.65;29.75;;;;;;;11.97;100.00;100716.81;5051611;28;20116;-73
2022/10/15 03:37:28;;;;;;;41.53;27.83;;;;;;;11.89;100.00;100710.66;5050749;28;20033;-74
2022/10/15 03:39:53;;;;;;;44.83;28.77;;;;;;;11.81;100.00;100710.88;5050885;28;20020;-73
2022/10/15 03:42:19;;;;;;;42.27;27.33;;;;;;;11.77;100.00;100715.09;5050695;28;20029;-74
2022/10/15 03:44:44;;;;;;;41.03;27.07;;;;;;;11.75;100.00;100723.53;5034313;28;20059;-74
2022/10/15 03:47:10;;;;;;;44.17;27.07;;;;;;;11.81;100.00;100721.84;5051545;28;20033;-74
2022/10/15 03:49:35;;;;;;;46.10;29.63;;;;;;;11.84;100.00;100726.94;5022540;28;20079;-73
2022/10/15 03:52:00;;;;;;;39.60;27.77;;;;;;;11.77;100.00;100729.66;5033122;28;20075;-74
2022/10/15 03:54:25;;;;;;;38.63;27.17;;;;;;;11.77;100.00;100737.91;5032331;28;20487;-73
2022/10/15 03:56:51;;;;;;;42.70;27.73;;;;;;;11.73;100.00;100735.75;5052134;28;20102;-74
2022/10/15 03:59:16;;;;;;;40.87;28.17;;;;;;;11.82;100.00;100740.00;5051088;28;20029;-73
2022/10/15 04:01:43;;;;;;;45.37;28.83;;;;;;;11.87;100.00;100746.59;5032662;28;20029;-74
2022/10/15 04:04:10;;;;;;;42.83;28.92;;;;;;;11.84;100.00;100749.72;5048628;28;20086;-74
2022/10/15 04:06:35;;;;;;;38.80;26.95;;;;;;;11.85;100.00;100750.59;5049960;28;20029;-74
2022/10/15 04:09:01;;;;;;;47.53;28.77;;;;;;;11.84;100.00;100746.16;5050498;28;20120;-74
2022/10/15 04:11:26;;;;;;;43.23;28.10;;;;;;;11.85;100.00;100751.41;5031716;28;20032;-74
2022/10/15 04:13:51;;;;;;;45.50;29.23;;;;;;;11.91;100.00;100749.75;5033167;28;20102;-74
2022/10/15 04:16:17;;;;;;;43.77;27.57;;;;;;;11.88;100.00;100744.66;5034460;28;20075;-74
2022/10/15 04:18:42;;;;;;;40.77;27.30;;;;;;;11.83;100.00;100741.69;5052047;28;20029;-73
2022/10/15 04:21:08;;;;;;;51.07;27.83;;;;;;;11.83;100.00;100736.19;5050522;28;20028;-74
2022/10/15 04:23:33;;;;;;;48.43;28.93;;;;;;;11.75;100.00;100739.97;5031814;28;20539;-74
2022/10/15 04:25:59;;;;;;;42.83;28.03;;;;;;;11.74;100.00;100737.47;5051284;28;20094;-73
2022/10/15 04:28:24;;;;;;;42.30;27.43;;;;;;;11.60;100.00;100736.59;5050190;28;20029;-74
2022/10/15 04:30:50;;;;;;;42.70;26.03;;;;;;;11.57;100.00;100736.09;5050733;28;20036;-73
2022/10/15 04:33:15;;;;;;;41.53;26.50;;;;;;;11.53;100.00;100741.16;5050422;28;20187;-73
2022/10/15 04:35:40;;;;;;;41.47;27.10;;;;;;;11.50;100.00;100735.25;5051117;28;20563;-73
2022/10/15 04:38:06;;;;;;;39.83;26.33;;;;;;;11.47;100.00;100738.41;5033173;28;20487;-73
2022/10/15 04:40:31;;;;;;;42.07;27.23;;;;;;;11.53;100.00;100735.66;5050047;28;20108;-73
2022/10/15 04:42:56;;;;;;;45.97;27.47;;;;;;;11.51;100.00;100731.44;5049577;28;20028;-73
2022/10/15 04:45:22;;;;;;;47.13;25.87;;;;;;;11.50;100.00;100727.00;5051704;28;20110;-73
2022/10/15 04:47:47;;;;;;;37.60;25.47;;;;;;;11.50;100.00;100725.13;5051405;28;20040;-73
2022/10/15 04:50:12;;;;;;;38.70;27.03;;;;;;;11.53;100.00;100721.97;5048669;28;20021;-73
2022/10/15 04:52:38;;;;;;;44.50;29.30;;;;;;;11.64;100.00;100720.56;5050261;28;20036;-73
2022/10/15 04:55:03;;;;;;;39.80;28.60;;;;;;;11.64;100.00;100718.63;5049729;28;20119;-73
2022/10/15 04:57:30;;;;;;;45.30;28.47;;;;;;;11.71;100.00;100718.66;5050186;28;20025;-73
2022/10/15 04:59:55;;;;;;;56.63;30.65;;;;;;;11.83;100.00;100720.59;5049813;28;20036;-74
2022/10/15 05:02:20;;;;;;;52.43;31.37;;;;;;;11.88;100.00;100717.22;5048572;28;20041;-73
2022/10/15 05:04:46;;;;;;;54.10;31.57;;;;;;;11.85;100.00;100720.41;5048198;28;20480;-73
2022/10/15 05:07:11;;;;;;;51.20;32.27;;;;;;;11.80;100.00;100718.25;5049778;28;20464;-74
2022/10/15 05:09:36;;;;;;;46.60;30.13;;;;;;;11.98;100.00;100714.91;5045024;28;20079;-73
2022/10/15 05:12:01;;;;;;;46.40;30.80;;;;;;;11.94;100.00;100711.75;5045330;28;20029;-73
2022/10/15 05:14:27;;;;;;;50.17;30.60;;;;;;;11.86;100.00;100714.66;5048924;28;20072;-73
2022/10/15 05:16:52;;;;;;;53.83;31.90;;;;;;;11.81;100.00;100708.13;5031814;28;20074;-73
2022/10/15 05:19:17;;;;;;;49.83;29.63;;;;;;;11.81;100.00;100705.38;5051447;28;20033;-73
2022/10/15 05:21:43;;;;;;;42.93;27.70;;;;;;;11.77;100.00;100715.09;5031700;28;20472;-74
2022/10/15 05:24:09;;;;;;;49.63;29.70;;;;;;;11.81;100.00;100706.25;5049177;28;20045;-73
2022/10/15 05:26:34;;;;;;;44.23;30.17;;;;;;;11.81;100.00;100717.22;5048265;28;20056;-73
2022/10/15 05:29:00;;;;;;;52.67;32.43;;;;;;;11.89;100.00;100710.66;5031741;28;20442;-74
2022/10/15 05:31:28;;;;;;;54.47;31.83;;;;;;;11.87;100.00;100715.53;5029603;28;20064;-74
2022/10/15 05:33:54;;;;;;;52.03;30.17;;;;;;;11.89;100.00;100708.78;5031141;28;20033;-73
2022/10/15 05:36:24;;;;;;;48.85;29.52;;;;;;;11.93;100.00;100714.69;5048895;28;20083;-73
2022/10/15 05:38:52;;;;;;;53.30;30.25;;;;;;;12.04;100.00;100712.19;5031374;28;20769;-73
2022/10/15 05:41:18;;;;;;;47.42;30.45;;;;;;;12.05;100.00;100707.50;5048845;28;20392;-73
2022/10/15 05:43:48;;;;;;;51.83;32.03;;;;;;;12.06;100.00;100706.50;5049603;28;20033;-73
2022/10/15 05:46:14;;;;;;;56.58;32.50;;;;;;;12.05;100.00;100708.38;5050972;28;20135;-73
2022/10/15 05:48:39;;;;;;;51.10;31.20;;;;;;;12.06;100.00;100714.72;5031912;28;20028;-73
2022/10/15 05:51:07;;;;;;;50.63;31.40;;;;;;;12.15;100.00;100705.19;5049099;28;20028;-73
2022/10/15 05:53:33;;;;;;;46.78;31.55;;;;;;;12.20;100.00;100709.03;5049026;28;20029;-73
2022/10/15 05:55:59;;;;;;;50.90;31.13;;;;;;;12.22;100.00;100700.56;5031302;28;20387;-73
2022/10/15 05:58:28;;;;;;;60.10;32.17;;;;;;;12.18;100.00;100694.63;5049733;28;20028;-73
2022/10/15 06:00:54;;;;;;;53.65;32.70;;;;;;;12.18;100.00;100699.31;5046553;28;20031;-73
2022/10/15 06:03:20;;;;;;;55.23;32.23;;;;;;;12.23;100.00;100705.84;5049966;28;20056;-73
2022/10/15 06:05:45;;;;;;;60.23;34.50;;;;;;;12.21;100.00;100696.13;5050683;28;20313;-73
2022/10/15 06:08:10;;;;;;;65.03;36.10;;;;;;;12.15;100.00;100703.31;5030984;28;20423;-73
2022/10/15 06:10:36;;;;;;;83.30;37.97;;;;;;;12.27;100.00;100700.78;5049029;28;20033;-73
2022/10/15 06:13:03;;;;;;;73.43;37.97;;;;;;;12.26;100.00;100697.19;5049122;28;20434;-73
2022/10/15 06:15:28;;;;;;;100.55;41.50;;;;;;;12.23;100.00;100696.75;5049364;28;20033;-73
2022/10/15 06:17:54;;;;;;;88.80;40.60;;;;;;;12.17;100.00;100698.44;5029921;28;20082;-73
2022/10/15 06:20:19;;;;;;;91.20;41.23;;;;;;;12.20;100.00;100706.28;5049478;28;20102;-73
2022/10/15 06:22:44;;;;;;;104.70;40.93;;;;;;;12.20;100.00;100705.41;5031163;28;20028;-73
2022/10/15 06:25:10;;;;;;;107.73;41.20;;;;;;;12.29;100.00;100693.16;5047551;28;20476;-73
2022/10/15 06:27:35;;;;;;;99.23;42.87;;;;;;;12.26;100.00;100696.31;5047287;28;20472;-73
2022/10/15 06:30:01;;;;;;;110.87;44.10;;;;;;;12.24;100.00;100702.06;5050431;28;20487;-73
2022/10/15 06:32:26;;;;;;;101.93;43.10;;;;;;;12.28;100.00;100695.06;5049142;28;20180;-73
2022/10/15 06:34:51;;;;;;;97.33;40.47;;;;;;;12.34;100.00;100696.94;5048573;28;20419;-73
2022/10/15 06:37:16;;;;;;;106.13;44.17;;;;;;;12.39;100.00;100699.09;5046289;28;20434;-73
2022/10/15 06:39:42;;;;;;;94.10;41.03;;;;;;;12.39;100.00;100699.91;5048436;28;20028;-73
2022/10/15 06:42:07;;;;;;;89.17;40.47;;;;;;;12.41;100.00;100696.97;5030944;28;20124;-73
2022/10/15 06:44:32;;;;;;;77.40;39.93;;;;;;;12.48;100.00;100686.81;5049634;28;20033;-72
2022/10/15 06:46:58;;;;;;;72.53;36.73;;;;;;;12.44;100.00;100700.13;5028845;28;20037;-73
2022/10/15 06:49:23;;;;;;;65.53;33.80;;;;;;;12.52;100.00;100701.81;5047929;28;20122;-73
2022/10/15 06:51:48;;;;;;;61.70;34.00;;;;;;;12.58;100.00;100703.69;5028972;28;20021;-73
2022/10/15 06:54:14;;;;;;;64.13;32.80;;;;;;;12.66;100.00;100701.56;5048474;28;20040;-73
2022/10/15 06:56:39;;;;;;;60.63;31.43;;;;;;;12.65;100.00;100694.38;5046210;28;20036;-73
2022/10/15 06:59:04;;;;;;;55.80;30.80;;;;;;;12.67;100.00;100699.66;5049396;28;20035;-73
2022/10/15 07:01:30;;;;;;;56.50;31.23;;;;;;;12.74;100.00;100695.84;5047006;28;20048;-73
2022/10/15 07:03:55;;;;;;;47.23;27.67;;;;;;;12.74;100.00;100692.25;5049142;28;20480;-73
2022/10/15 07:06:20;;;;;;;49.63;28.20;;;;;;;12.80;100.00;100700.47;5048080;28;20036;-73
2022/10/15 07:08:46;;;;;;;52.33;26.40;;;;;;;12.76;100.00;100690.16;5029816;28;20036;-73
2022/10/15 07:11:11;;;;;;;47.43;27.13;;;;;;;12.75;100.00;100693.97;5048021;28;20087;-73
2022/10/15 07:13:37;;;;;;;46.00;27.90;;;;;;;12.81;100.00;100693.09;5048548;28;20043;-73
2022/10/15 07:16:08;;;;;;;45.13;26.63;;;;;;;12.80;100.00;100691.41;5048259;28;20456;-73
2022/10/15 07:18:34;;;;;;;48.78;25.85;;;;;;;12.88;100.00;100685.66;5047707;28;20115;-73
2022/10/15 07:21:00;;;;;;;48.03;26.57;;;;;;;12.97;100.00;100689.91;5046615;28;20120;-73
2022/10/15 07:23:25;;;;;;;45.90;25.67;;;;;;;12.99;100.00;100685.03;5047768;28;20040;-73
2022/10/15 07:25:50;;;;;;;51.27;27.53;;;;;;;13.05;100.00;100686.91;5046091;28;20430;-73
2022/10/15 07:28:16;;;;;;;46.47;27.07;;;;;;;13.13;100.00;100690.25;5047185;28;20036;-73
2022/10/15 07:30:41;;;;;;;42.07;24.07;;;;;;;13.22;100.00;100682.59;5046273;28;20064;-73
2022/10/15 07:33:06;;;;;;;45.67;23.17;;;;;;;13.30;100.00;100674.13;5046822;28;20029;-73
2022/10/15 07:35:32;;;;;;;40.43;23.97;;;;;;;13.39;100.00;100681.88;5048115;28;20028;-72
2022/10/15 07:38:01;;;;;;;37.78;23.80;;;;;;;13.47;100.00;100678.03;5030430;28;20028;-73
2022/10/15 07:40:26;;;;;;;38.75;23.83;;;;;;;13.51;100.00;100679.28;5029603;28;20028;-73
2022/10/15 07:42:53;;;;;;;37.97;23.17;;;;;;;13.65;100.00;100676.22;5028702;28;20506;-72
2022/10/15 07:45:18;;;;;;;43.63;23.30;;;;;;;13.72;100.00;100676.19;5029851;28;20065;-75
2022/10/15 07:47:44;;;;;;;41.20;21.27;;;;;;;13.78;100.00;100664.31;5041614;28;20084;-73
2022/10/15 07:50:09;;;;;;;37.10;21.63;;;;;;;13.76;100.00;100670.03;5043758;28;20503;-73
2022/10/15 07:52:34;;;;;;;35.80;21.00;;;;;;;13.70;100.00;100659.91;5044672;28;20120;-73
2022/10/15 07:55:00;;;;;;;29.47;20.23;;;;;;;13.71;100.00;100653.31;5047427;28;20045;-73
2022/10/15 07:57:25;;;;;;;26.77;19.00;;;;;;;13.70;100.00;100654.41;5047340;28;20452;-73
2022/10/15 07:59:50;;;;;;;32.53;20.07;;;;;;;13.71;100.00;100649.75;5050908;28;20029;-73
2022/10/15 08:02:17;;;;;;;27.27;18.83;;;;;;;13.75;100.00;100648.22;5025929;28;20030;-73
2022/10/15 08:04:43;;;;;;;26.77;17.83;;;;;;;13.82;100.00;100655.34;5051104;28;20491;-73
2022/10/15 08:07:08;;;;;;;26.27;17.80;;;;;;;13.84;100.00;100633.97;5049480;28;20029;-73
2022/10/15 08:09:33;;;;;;;26.93;17.90;;;;;;;13.89;100.00;100634.16;5049599;28;20127;-73
2022/10/15 08:11:58;;;;;;;26.73;18.03;;;;;;;13.91;100.00;100640.25;5046538;28;20021;-73
2022/10/15 08:14:24;;;;;;;31.67;18.53;;;;;;;14.01;100.00;100643.38;5042592;28;20029;-73
2022/10/15 08:16:50;;;;;;;31.20;18.10;;;;;;;14.02;100.00;100650.56;5044677;28;20071;-73
2022/10/15 08:19:16;;;;;;;26.97;19.87;;;;;;;14.14;100.00;100643.22;5046775;28;20502;-73
2022/10/15 08:21:43;;;;;;;26.50;18.15;;;;;;;14.16;100.00;100645.78;5047776;28;20104;-73
2022/10/15 08:24:08;;;;;;;28.00;17.48;;;;;;;14.11;100.00;100645.59;5045708;28;20499;-73
2022/10/15 08:26:34;;;;;;;27.17;16.83;;;;;;;14.08;100.00;100646.06;5043417;28;20097;-73
2022/10/15 08:29:00;;;;;;;23.40;17.07;;;;;;;14.06;100.00;100635.28;5029515;28;20037;-73
2022/10/15 08:31:25;;;;;;;24.93;18.50;;;;;;;14.12;100.00;100631.63;5048420;28;20040;-73
2022/10/15 08:33:50;;;;;;;29.30;17.53;;;;;;;14.20;100.00;100622.25;5047251;28;20082;-73
2022/10/15 08:36:16;;;;;;;22.57;17.03;;;;;;;14.28;100.00;100641.25;5048740;28;20154;-73
2022/10/15 08:38:41;;;;;;;26.80;17.10;;;;;;;14.35;100.00;100628.25;5048680;28;20048;-73
2022/10/15 08:41:20;;;;;;;22.80;17.00;;;;;;;14.35;100.00;100626.31;5033729;28;20067;-73
2022/10/15 08:43:46;;;;;;;23.25;16.17;;;;;;;14.36;99.56;100629.94;5042949;28;20035;-73
2022/10/15 08:46:17;;;;;;;22.40;15.10;;;;;;;14.49;99.43;100624.28;5049657;28;20096;-73
2022/10/15 08:48:50;;;;;;;22.33;16.33;;;;;;;14.65;98.05;100620.94;5048432;28;20056;-73
2022/10/15 08:51:29;;;;;;;20.90;15.43;;;;;;;14.72;98.21;100619.78;5031933;28;20033;-73
2022/10/15 08:54:00;;;;;;;23.67;15.50;;;;;;;14.80;98.50;100621.41;5046048;28;20135;-73
2022/10/15 08:56:33;;;;;;;22.05;15.38;;;;;;;14.77;98.21;100602.53;5028160;28;20383;-73
2022/10/15 08:59:16;;;;;;;20.95;14.70;;;;;;;14.95;96.82;100616.34;5046676;28;20082;-73
2022/10/15 09:02:07;;;;;;;22.98;14.80;;;;;;;14.80;97.29;100618.63;5045772;28;20063;-73
2022/10/15 09:05:00;;;;;;;18.63;13.77;;;;;;;14.73;98.43;100617.88;5041064;28;20041;-72
2022/10/15 09:07:34;;;;;;;18.95;13.50;;;;;;;14.64;99.55;100620.09;5044285;28;20115;-72
2022/10/15 09:10:37;;;;;;;25.38;13.75;;;;;;;14.60;100.00;100623.53;5045401;28;20495;-74
2022/10/15 09:13:11;;;;;;;18.85;12.85;;;;;;;14.53;100.00;100612.59;5041098;28;20045;-73
2022/10/15 09:15:47;;;;;;;19.50;12.90;;;;;;;14.53;100.00;100612.59;5048436;28;20028;-73
2022/10/15 09:18:26;;;;;;;20.45;13.88;;;;;;;14.50;100.00;100610.28;5049627;28;20033;-73
2022/10/15 09:20:53;;;;;;;17.83;13.60;;;;;;;14.53;100.00;100608.97;5030952;28;20028;-73
2022/10/15 09:23:26;;;;;;;19.52;13.20;;;;;;;14.46;100.00;100599.94;5050067;28;20437;-73
2022/10/15 09:25:58;;;;;;;19.73;12.43;;;;;;;14.47;100.00;100596.13;5030502;28;20032;-73
2022/10/15 09:28:34;;;;;;;16.65;12.32;;;;;;;14.46;100.00;100598.03;5041323;28;20124;-73
2022/10/15 09:31:00;;;;;;;17.50;11.73;;;;;;;14.40;100.00;100592.59;5049804;28;20040;-73
2022/10/15 09:34:04;;;;;;;18.63;12.63;;;;;;;14.44;100.00;100589.16;5049460;28;20025;-73
2022/10/15 09:36:41;;;;;;;19.13;13.40;;;;;;;14.50;100.00;100592.88;5045558;28;20132;-73
2022/10/15 09:39:22;;;;;;;18.33;12.75;;;;;;;14.52;100.00;100596.28;5045432;28;20025;-73
2022/10/15 09:42:02;;;;;;;19.23;12.30;;;;;;;14.43;100.00;100578.34;5039150;28;20040;-72
2022/10/15 09:44:38;;;;;;;15.20;11.10;;;;;;;14.40;100.00;100578.81;5043821;28;20082;-72
2022/10/15 09:47:21;;;;;;;19.30;12.55;;;;;;;14.36;100.00;100578.41;5028790;28;20111;-73
2022/10/15 09:49:46;;;;;;;16.42;12.52;;;;;;;14.42;100.00;100574.72;5049447;28;20179;-73
2022/10/15 09:52:29;;;;;;;20.10;12.40;;;;;;;14.38;100.00;100579.03;5048035;28;20479;-73
2022/10/15 09:54:57;;;;;;;17.70;11.25;;;;;;;14.35;100.00;100571.22;5041128;28;20056;-73
2022/10/15 09:57:24;;;;;;;16.25;11.25;;;;;;;14.44;100.00;100567.09;5046650;28;20430;-73
2022/10/15 09:59:53;;;;;;;;;;;;;;;14.43;100.00;100575.59;5047113;28;20494;-73
2022/10/15 10:02:21;;;;;;;15.82;10.48;;;;;;;14.40;100.00;100576.06;5040833;28;19920;-73
2022/10/15 10:04:46;;;;;;;21.90;15.90;;;;;;;14.29;100.00;100568.53;5040383;28;20025;-73
2022/10/15 10:07:32;;;;;;;14.57;11.83;;;;;;;14.46;100.00;100566.88;5043161;28;20388;-72
2022/10/15 10:10:26;;;;;;;16.08;10.35;;;;;;;14.43;100.00;100570.94;5038756;28;20049;-73
2022/10/15 10:12:53;;;;;;;13.30;9.80;;;;;;;14.49;100.00;100567.25;5042545;28;20040;-72
2022/10/15 10:15:27;;;;;;;20.13;11.88;;;;;;;14.49;100.00;100571.91;5043407;28;20499;-73
2022/10/15 10:17:54;;;;;;;16.48;10.20;;;;;;;14.48;100.00;100575.75;5037479;28;20029;-72
2022/10/15 10:20:22;;;;;;;13.95;10.57;;;;;;;14.46;100.00;100572.38;5042953;28;20029;-73
2022/10/15 10:22:58;;;;;;;20.75;11.27;;;;;;;14.52;100.00;100555.75;5043579;28;20057;-72
2022/10/15 10:25:38;;;;;;;18.85;11.52;;;;;;;14.61;100.00;100557.13;5022621;28;20071;-73
2022/10/15 10:28:15;;;;;;;13.45;9.38;;;;;;;14.57;100.00;100563.34;5044010;28;20033;-73
2022/10/15 10:30:50;;;;;;;;;;;;;;;14.51;100.00;100562.34;5046248;28;20047;-73
2022/10/15 10:33:24;;;;;;;11.00;7.80;;;;;;;14.62;100.00;100563.50;5041047;28;20307;-72
2022/10/15 10:35:50;;;;;;;15.48;8.57;;;;;;;14.66;100.00;100570.22;5042602;28;20117;-73
2022/10/15 10:38:21;;;;;;;14.53;7.73;;;;;;;14.71;100.00;100567.63;5043765;28;20036;-73
2022/10/15 10:40:51;;;;;;;10.88;7.50;;;;;;;14.73;100.00;100571.00;5043119;28;20411;-73
2022/10/15 10:43:16;;;;;;;13.05;7.70;;;;;;;14.75;100.00;100575.22;5044105;28;20033;-73
2022/10/15 10:45:58;;;;;;;8.37;6.57;;;;;;;14.75;100.00;100571.59;5045089;28;20025;-72
2022/10/15 10:48:37;;;;;;;9.02;6.68;;;;;;;14.72;100.00;100572.09;5040826;28;20036;-73
2022/10/15 10:51:06;;;;;;;8.05;6.78;;;;;;;14.73;100.00;100565.50;5040214;28;20024;-72
2022/10/15 10:53:37;;;;;;;9.02;6.28;;;;;;;14.81;100.00;100562.41;5042516;28;20027;-73
2022/10/15 10:56:03;;;;;;;8.05;6.82;;;;;;;14.86;100.00;100554.28;5043443;28;20067;-73
2022/10/15 10:58:32;;;;;;;8.50;7.60;;;;;;;14.85;100.00;100561.72;5044223;28;20029;-72
2022/10/15 11:00:58;;;;;;;12.52;8.50;;;;;;;14.88;100.00;100557.66;5045653;28;20078;-73
2022/10/15 11:03:37;;;;;;;14.17;8.87;;;;;;;14.96;100.00;100547.16;5041859;28;20107;-72
2022/10/15 11:06:30;;;;;;;9.77;8.07;;;;;;;15.02;100.00;100543.47;5041425;28;20041;-72
2022/10/15 11:09:02;;;;;;;13.40;9.85;;;;;;;15.02;100.00;100553.63;5041455;28;20057;-73
2022/10/15 11:11:33;;;;;;;10.50;9.00;;;;;;;15.05;100.00;100548.50;5044797;28;20021;-73